x

Buoy F01 - West Penobscot Bay (44033) Wave Buoy

10:04pm - Fri 2nd Dec 2016 All times are EST. -5 hours from GMT.

  • Sig Wave height 2.0ft
  • Peak Period 5s
  • Wind
    11mph, 16mph gusts
  • Sea Temp 47°f
  • 空気 Temp 43°f
  • Sea Pressure 1002.9mb
  • Buoy F01 - West Penobscot Bay
  • Buoy F01 - West Penobscot Bay

More Historic Weather Station data

Upgrade to MSW Pro to gain access to the past 30 days of data for over 8000 Wavebouys and Weather Stations around the globe.

Join Pro

Comparision Forecast

View Surf forecast
   
Fri 12/02 10:04pm 2ft 5s 11 16 mph 1002.9mb 47f 43f
9:04pm 2ft 8s 13 16 mph 1002.9mb 47f 44f
8:04pm 2.5ft 11s 11 13 mph 1003.2mb 47f 45f
7:04pm 2.5ft 11s 9 13 mph 1003.5mb 47f 47f
6:04pm 1.6ft 5s 9 11 mph 1003.5mb 47f 47f
5:04pm 2ft 11s 9 11 mph 1003.6mb 47f 48f
3:04pm 1.6ft 5s 11 13 mph 1003.6mb 48f 47f
2:04pm  -   -  11 13 mph 1003.4mb 48f 47f
1:04pm 2ft 8s 2 4 mph 1003.4mb 48f 48f
12:04pm 2.5ft 8s 4 7 mph 1003.6mb 48f 45f
11:04am 2.5ft 11s 7 9 mph 1004mb 48f 45f
10:04am 2ft 5s 11 13 mph 1004.8mb 48f 44f
9:04am 1ft 4s 13 16 mph 1004.7mb 47f 43f
8:04am 2.5ft 11s 9 11 mph 1004.9mb 47f 41f
7:04am 2.5ft 11s 9
mph
1004.3mb 47f 40f
6:04am 2.5ft 11s 9 11 mph 1003.9mb 47f 39f
5:04am 2.5ft 8s 13 16 mph 1003mb 47f 40f
4:04am 1.6ft 5s 16 18 mph 1002.5mb 47f 41f
3:04am 0.7ft  -  18 20 mph 1001.9mb 48f 42f
2:04am 2.5ft 6s 16 18 mph 1001.4mb 48f 42f
1:04am 2.5ft 6s 16 18 mph 1000.5mb 48f 43f
12:04am 2.5ft 8s 16 20 mph 1000mb 48f 44f
Thu 12/01 11:04pm 2.5ft 8s 13 16 mph 999.8mb 48f 43f
10:04pm 2ft 11s 11 13 mph 999mb 48f 42f
9:04pm 1.6ft 8s 7 9 mph 998.9mb 48f 41f
8:04pm 2ft 8s 7 9 mph 998.9mb 48f 40f
7:04pm 2ft 8s 7 9 mph 998.7mb 48f 40f
6:04pm 2.5ft 8s 9 11 mph 998.4mb 48f 40f
5:04pm 3ft 8s 9 11 mph 998.2mb 48f 41f
4:04pm 4ft 8s 13 18 mph 997.2mb 48f 42f
3:04pm 4.5ft 11s 18 22 mph 996.1mb 49f 42f
2:04pm 5ft 8s 18 25 mph 995.1mb 49f 42f
12:04pm  -   -  20 25 mph 992mb 49f 48f
11:04am 6ft 8s 13 16 mph 990.6mb 49f 51f
10:04am 8ft 8s 13 18 mph 990.9mb 49f 53f
9:04am 9ft 11s 29 34 mph 992.6mb 49f 50f
8:04am 7.5ft 8s 31 40 mph 994.8mb 49f 49f
7:04am 8.5ft 8s 27 40 mph 997.5mb 49f 48f
6:04am 8ft 8s 29 38 mph 999.1mb 49f 47f
5:04am 7ft 8s 31 38 mph 1002mb 49f 47f
4:04am 6ft 6s 27 34 mph 1004.8mb 49f 47f
3:04am 5ft 6s 22 27 mph 1007.7mb 49f 47f
2:04am 5ft 6s 22 27 mph 1009.1mb 49f 46f
1:04am 4.5ft 5s 27 31 mph 1009.4mb 49f 46f
12:04am 4.5ft 5s 27 34 mph 1010.6mb 49f 46f
Wed 11/30 11:04pm 4ft 6s 22 27 mph 1012.6mb 49f 46f
10:04pm 3.5ft 8s 16 22 mph 1013.9mb 49f 45f
9:04pm 2.5ft 8s 18 20 mph 1015.1mb 49f 43f
8:04pm 3ft 8s 16 18 mph 1016.2mb 49f 42f
7:04pm 2.5ft 8s 16 20 mph 1016.9mb 49f 40f
5:04pm 2ft 8s 13 18 mph 1017.9mb 49f 41f
4:04pm 2.5ft 6s 13 18 mph 1017.6mb 49f 42f
3:04pm 2.5ft 6s 11 13 mph 1016.7mb 49f 42f
2:04pm 2.5ft 6s 9 13 mph 1017.2mb 49f 41f
1:04pm 3ft 8s 16 18 mph 1015.7mb 49f 41f
12:04pm 3.5ft 8s 20 22 mph 1015.2mb 49f 41f
11:04am 3ft 8s 16 20 mph 1015.5mb 49f 40f
10:04am 3ft 8s 13 18 mph 1016.1mb 49f 40f
9:04am 3.5ft 8s 16 18 mph 1015.9mb 49f 40f
8:04am 3.5ft 8s 16 20 mph 1014.3mb 49f 39f
7:04am 4.5ft 8s 20 25 mph 1012.9mb 49f 40f
6:04am 3.5ft 8s 20 25 mph 1012mb 49f 41f
5:04am 4.5ft 8s 18 22 mph 1011.1mb 49f 42f
4:04am 5ft 8s 16 18 mph 1009.8mb 49f 43f
3:04am 5ft 8s 18 22 mph 1008.2mb 49f 44f
2:04am 5ft 8s 13 16 mph 1007.5mb 49f 48f
1:04am 6ft 8s 11 16 mph 1007.2mb 49f 49f
12:04am 7.5ft 8s 4
mph
1007.6mb 49f 50f
Tue 11/29 11:04pm 7ft 8s 16 20 mph 1008.3mb 49f 53f
10:04pm 6ft 6s 4 13 mph 1009.7mb 49f 51f
9:04pm 5.5ft 6s 25 29 mph 1010.2mb 49f 50f
8:04pm 6ft 5s 25 31 mph 1012.8mb 49f 49f
7:04pm 5.5ft 5s 27 31 mph 1014.3mb 49f 48f
6:04pm 5ft 5s 27 31 mph 1015.9mb 48f 48f
5:04pm 4.5ft 5s 22 29 mph 1018.1mb 49f 47f
4:04pm 3.5ft 5s 22 27 mph 1017.9mb 49f 47f
3:04pm 2.5ft 5s 20 25 mph 1019.2mb 49f 47f
2:04pm 2ft 4s 18 22 mph 1020.1mb 48f 46f
1:04pm 1.6ft 4s 13 18 mph 1021.2mb 49f 45f
12:04pm 1.6ft 3s 13 16 mph 1021.6mb 48f 44f
11:04am 1.3ft 3s 13 16 mph 1022mb 49f 44f
10:04am 1ft 2s 13 16 mph 1023.6mb 49f 44f
9:04am 1ft 2s 11 13 mph 1023.8mb 49f 43f
8:04am 0.7ft  -  11 13 mph 1023.7mb 49f 39f
7:04am 0.7ft  -  9 11 mph 1024.1mb 49f 38f
6:04am 0.3ft  -  4 7 mph 1024.3mb 49f 38f
5:04am 0.7ft  -  7 9 mph 1023.9mb 49f 37f